Terminal Aerodrome Forecast
Issued by NWS Flagstaff, AZ

Home | Current Version | Previous Version | Text Only | Print | Product List | Glossary On
Versions: 1 2 3 4 5 6 7 8 9 10 11 12 13 14 15 16 17 18 19 20 21 22 23 24
000
FTUS45 KFGZ 202300
TAFFLG
TAF
KFLG 202324Z 2100/2124 23008KT P6SM VCTS SCT040CB BKN110
     FM210300 VRB03KT P6SM SCT070
     FM211800 19006KT P6SM VCTS SCT050CB SCT100
      TEMPO 2120/2124 VRB15G25KT 4SM TSRA BKN040CB=

USA.gov is the U.S. government's official web portal to all federal, state and local government web resources and services.